createdAt,value
2019-02-16T00:00:23.890Z,56.80
2019-02-16T00:02:52.412Z,57.00
2019-02-16T00:05:21.585Z,57.00
2019-02-16T00:07:49.849Z,57.20
2019-02-16T00:10:18.439Z,57.80
2019-02-16T00:12:47.564Z,57.20
2019-02-16T00:15:16.249Z,57.40
2019-02-16T00:17:44.642Z,57.60
2019-02-16T00:20:13.146Z,57.70
2019-02-16T00:22:41.818Z,57.70
2019-02-16T00:25:10.166Z,57.40
2019-02-16T00:27:38.484Z,57.40
2019-02-16T00:30:09.826Z,57.30
2019-02-16T00:32:39.498Z,57.30
2019-02-16T00:35:07.745Z,57.40
2019-02-16T00:37:36.322Z,57.50
2019-02-16T00:40:07.082Z,57.30
2019-02-16T00:42:37.645Z,57.50
2019-02-16T00:45:07.232Z,57.80
2019-02-16T00:47:35.734Z,57.80
2019-02-16T00:50:05.005Z,57.90
2019-02-16T00:52:33.299Z,58.80
2019-02-16T00:55:01.874Z,58.40
2019-02-16T00:57:30.385Z,58.30
2019-02-16T00:59:59.790Z,58.20
2019-02-16T01:02:28.182Z,58.70
2019-02-16T01:04:59.321Z,58.60
2019-02-16T01:07:27.562Z,58.80
2019-02-16T01:09:56.651Z,58.80
2019-02-16T01:12:24.879Z,59.00
2019-02-16T01:14:54.982Z,59.00
2019-02-16T01:17:23.837Z,59.10
2019-02-16T01:19:52.077Z,59.00
2019-02-16T01:22:20.321Z,59.20
2019-02-16T01:24:49.479Z,59.10
2019-02-16T01:27:17.702Z,59.20
2019-02-16T01:29:46.055Z,59.80
2019-02-16T01:32:15.049Z,59.40
2019-02-16T01:34:43.300Z,59.30
2019-02-16T01:37:15.208Z,59.60
2019-02-16T01:39:43.653Z,59.70
2019-02-16T01:42:11.906Z,59.70
2019-02-16T01:44:40.457Z,60.10
2019-02-16T01:47:08.890Z,60.60
2019-02-16T01:49:38.174Z,60.40
2019-02-16T01:52:07.115Z,60.60
2019-02-16T01:54:35.683Z,61.40
2019-02-16T01:57:03.905Z,60.80
2019-02-16T01:59:32.554Z,61.10
2019-02-16T02:02:02.986Z,61.70
2019-02-16T02:04:31.217Z,62.40
2019-02-16T02:06:59.466Z,61.90
2019-02-16T02:09:28.979Z,62.00
2019-02-16T02:11:57.909Z,62.40
2019-02-16T02:14:27.354Z,63.10
2019-02-16T02:16:56.613Z,63.10
2019-02-16T02:19:24.836Z,63.10
2019-02-16T02:21:55.783Z,63.10
2019-02-16T02:24:24.297Z,63.20
2019-02-16T02:26:52.615Z,63.10
2019-02-16T02:29:20.869Z,64.00
2019-02-16T02:31:49.668Z,64.30
2019-02-16T02:34:18.469Z,64.20
2019-02-16T02:36:46.721Z,64.10
2019-02-16T02:39:15.047Z,64.90
2019-02-16T02:41:43.283Z,64.70
2019-02-16T02:44:11.513Z,65.00
2019-02-16T02:46:40.475Z,64.70
2019-02-16T02:49:08.710Z,65.10
2019-02-16T02:51:36.947Z,64.70
2019-02-16T02:54:05.172Z,64.70
2019-02-16T02:56:33.865Z,64.70
2019-02-16T02:59:02.135Z,65.20
2019-02-16T03:01:30.383Z,65.60
2019-02-16T03:03:59.210Z,65.80
2019-02-16T03:06:28.227Z,66.10
2019-02-16T03:09:00.507Z,66.50
2019-02-16T03:11:29.264Z,66.20
2019-02-16T03:13:57.574Z,66.70
2019-02-16T03:16:26.261Z,66.80
2019-02-16T03:18:56.632Z,67.00
2019-02-16T03:21:24.894Z,67.20
2019-02-16T03:23:53.228Z,67.10
2019-02-16T03:26:40.691Z,66.90
2019-02-16T03:29:27.326Z,67.00
2019-02-16T03:32:01.793Z,67.30
2019-02-16T03:34:33.302Z,67.50
2019-02-16T03:37:38.254Z,67.20
2019-02-16T03:40:09.165Z,67.50
2019-02-16T03:42:37.432Z,67.50
2019-02-16T03:45:06.705Z,67.60
2019-02-16T03:47:35.030Z,67.50
2019-02-16T03:50:04.809Z,67.70
2019-02-16T03:52:35.098Z,67.50
2019-02-16T03:55:04.329Z,67.50
2019-02-16T03:57:32.586Z,68.10
2019-02-16T04:00:01.046Z,67.60
2019-02-16T04:02:29.340Z,67.50
2019-02-16T04:04:59.638Z,67.80
2019-02-16T04:07:28.249Z,67.80
2019-02-16T04:09:56.667Z,67.90
2019-02-16T04:12:25.263Z,68.10
2019-02-16T04:14:53.878Z,68.40
2019-02-16T04:17:22.109Z,67.90
2019-02-16T04:19:52.001Z,68.10
2019-02-16T04:22:24.610Z,68.10
2019-02-16T04:24:50.509Z,68.00
2019-02-16T04:27:18.729Z,67.80
2019-02-16T04:29:47.242Z,67.60
2019-02-16T04:32:15.552Z,67.50
2019-02-16T04:34:44.351Z,68.00
2019-02-16T04:37:12.809Z,67.80
2019-02-16T04:39:41.077Z,67.80
2019-02-16T04:42:09.342Z,68.20
2019-02-16T04:44:38.446Z,68.10
2019-02-16T04:47:06.741Z,68.00
2019-02-16T04:49:35.011Z,68.20
2019-02-16T04:52:03.677Z,68.50
2019-02-16T04:54:31.924Z,68.80
2019-02-16T04:57:00.196Z,68.50
2019-02-16T04:59:28.529Z,68.80
2019-02-16T05:01:56.742Z,69.00
2019-02-16T05:04:25.011Z,69.10
2019-02-16T05:06:53.553Z,69.30
2019-02-16T05:09:21.806Z,69.60
2019-02-16T05:11:50.322Z,70.10
2019-02-16T05:14:18.746Z,70.30
2019-02-16T05:16:48.889Z,70.60
2019-02-16T05:19:17.098Z,70.40
2019-02-16T05:21:47.311Z,70.60
2019-02-16T05:24:15.547Z,70.00
2019-02-16T05:26:44.633Z,70.40
2019-02-16T05:29:16.402Z,70.30
2019-02-16T05:31:44.635Z,70.40
2019-02-16T05:34:12.849Z,70.70
2019-02-16T05:36:42.412Z,70.70
2019-02-16T05:39:10.654Z,70.80
2019-02-16T05:41:38.895Z,71.20
2019-02-16T05:44:08.979Z,70.70
2019-02-16T05:46:37.400Z,70.50
2019-02-16T05:49:05.796Z,70.90
2019-02-16T05:51:35.440Z,71.30
2019-02-16T05:54:03.775Z,71.80
2019-02-16T05:56:32.109Z,71.80
2019-02-16T05:59:00.700Z,72.00
2019-02-16T06:01:29.819Z,71.80
2019-02-16T06:03:58.167Z,72.40
2019-02-16T06:06:27.191Z,72.00
2019-02-16T06:08:56.463Z,72.50
2019-02-16T06:11:25.733Z,72.50
2019-02-16T06:13:54.531Z,72.60
2019-02-16T06:16:24.211Z,72.70
2019-02-16T06:18:52.536Z,72.60
2019-02-16T06:21:21.738Z,73.00
2019-02-16T06:23:50.138Z,73.00
2019-02-16T06:26:18.470Z,73.20
2019-02-16T06:28:47.782Z,73.20
2019-02-16T06:31:16.216Z,73.20
2019-02-16T06:33:44.462Z,73.20
2019-02-16T06:36:15.271Z,73.50
2019-02-16T06:38:43.614Z,73.60
2019-02-16T06:41:11.865Z,73.70
2019-02-16T06:43:43.811Z,74.10
2019-02-16T06:46:12.206Z,74.40
2019-02-16T06:48:40.441Z,75.30
2019-02-16T06:51:10.834Z,74.60
2019-02-16T06:53:39.243Z,73.80
2019-02-16T06:56:09.338Z,73.60
2019-02-16T06:58:38.375Z,73.90
2019-02-16T07:01:06.782Z,73.70
2019-02-16T07:03:35.272Z,74.10
2019-02-16T07:06:03.643Z,73.90
2019-02-16T07:08:32.761Z,73.70
2019-02-16T07:11:01.105Z,73.30
2019-02-16T07:13:29.464Z,73.40
2019-02-16T07:16:16.059Z,73.60
2019-02-16T07:18:46.822Z,74.80
2019-02-16T07:21:17.780Z,73.70
2019-02-16T07:23:46.907Z,73.40
2019-02-16T07:26:25.506Z,73.00
2019-02-16T07:28:53.734Z,71.50
2019-02-16T07:31:21.993Z,70.40
2019-02-16T07:33:55.745Z,69.60
2019-02-16T07:36:24.005Z,69.20
2019-02-16T07:38:53.102Z,68.50
2019-02-16T07:41:21.322Z,68.10
2019-02-16T07:43:51.307Z,67.20
2019-02-16T07:46:27.863Z,66.20
2019-02-16T07:49:06.469Z,64.60
2019-02-16T07:51:45.453Z,64.10
2019-02-16T07:54:18.194Z,62.80
2019-02-16T07:56:49.953Z,62.20
2019-02-16T07:59:19.926Z,61.20
2019-02-16T08:01:56.666Z,59.70
2019-02-16T08:04:38.439Z,58.10
2019-02-16T08:07:25.239Z,55.90
2019-02-16T08:10:01.187Z,55.70
2019-02-16T08:12:31.523Z,55.60
2019-02-16T08:17:55.723Z,54.00
2019-02-16T08:20:25.718Z,53.40
2019-02-16T08:23:07.823Z,53.10
2019-02-16T08:25:52.693Z,54.20
2019-02-16T08:28:29.145Z,54.80
2019-02-16T08:31:01.901Z,55.00
2019-02-16T08:33:38.123Z,55.00
2019-02-16T08:36:24.616Z,56.40
2019-02-16T08:39:04.562Z,55.60
2019-02-16T08:41:50.585Z,56.20
2019-02-16T08:44:23.626Z,55.90
2019-02-16T08:47:12.445Z,53.70
2019-02-16T08:49:48.626Z,54.60
2019-02-16T08:52:18.519Z,55.90
2019-02-16T08:54:48.486Z,54.10
2019-02-16T08:57:24.902Z,54.80
2019-02-16T09:00:06.608Z,53.90
2019-02-16T09:02:42.874Z,53.30
2019-02-16T09:05:28.411Z,53.40
2019-02-16T09:08:09.146Z,52.70
2019-02-16T09:10:43.207Z,52.70
2019-02-16T09:13:13.424Z,50.90
2019-02-16T09:15:43.640Z,49.20
2019-02-16T09:18:29.490Z,50.00
2019-02-16T09:21:14.819Z,50.30
2019-02-16T09:23:59.787Z,50.90
2019-02-16T09:26:53.608Z,53.10
2019-02-16T09:29:26.563Z,53.30
2019-02-16T09:32:03.929Z,53.80
2019-02-16T09:34:36.350Z,52.40
2019-02-16T09:37:17.921Z,51.10
2019-02-16T09:40:06.065Z,50.50
2019-02-16T09:42:36.758Z,51.60
2019-02-16T09:45:25.422Z,48.70
2019-02-16T09:48:09.610Z,48.30
2019-02-16T09:50:40.632Z,47.30
2019-02-16T09:53:28.529Z,46.10
2019-02-16T09:55:59.809Z,45.50
2019-02-16T09:58:38.510Z,45.30
2019-02-16T10:01:08.388Z,46.20
2019-02-16T10:03:57.822Z,47.70
2019-02-16T10:06:39.722Z,48.30
2019-02-16T10:09:21.727Z,48.80
2019-02-16T10:12:00.595Z,48.80
2019-02-16T10:14:35.061Z,47.40
2019-02-16T10:17:04.978Z,47.20
2019-02-16T10:19:38.477Z,48.50
2019-02-16T10:22:10.979Z,47.20
2019-02-16T10:24:56.336Z,45.70
2019-02-16T10:27:26.218Z,46.30
2019-02-16T10:30:01.960Z,44.50
2019-02-16T10:32:44.851Z,44.20
2019-02-16T10:35:15.946Z,44.50
2019-02-16T10:37:52.052Z,46.50
2019-02-16T10:40:25.341Z,46.30
2019-02-16T10:43:01.377Z,46.20
2019-02-16T10:48:21.592Z,41.80
2019-02-16T10:51:02.642Z,40.80
2019-02-16T10:53:35.865Z,40.30
2019-02-16T10:56:18.941Z,37.90
2019-02-16T10:59:12.027Z,37.90
2019-02-16T11:02:00.431Z,39.00
2019-02-16T11:04:38.113Z,37.60
2019-02-16T11:07:03.911Z,37.20
2019-02-16T11:09:41.698Z,35.00
2019-02-16T11:12:13.246Z,35.00
2019-02-16T11:14:59.048Z,35.20
2019-02-16T11:17:30.290Z,35.20
2019-02-16T11:20:00.290Z,35.70
2019-02-16T11:22:41.385Z,34.20
2019-02-16T11:25:12.622Z,34.80
2019-02-16T11:27:42.780Z,32.20
2019-02-16T11:30:15.413Z,32.10
2019-02-16T11:32:45.777Z,30.60
2019-02-16T11:35:18.602Z,28.60
2019-02-16T11:38:03.941Z,28.50
2019-02-16T11:40:35.535Z,28.70
2019-02-16T11:43:07.290Z,29.20
2019-02-16T11:45:58.106Z,29.20
2019-02-16T11:48:35.380Z,28.20
2019-02-16T11:51:21.772Z,29.40
2019-02-16T11:54:12.319Z,30.50
2019-02-16T11:56:51.011Z,32.10
2019-02-16T11:59:24.166Z,30.90
2019-02-16T12:01:55.892Z,32.30
2019-02-16T12:04:26.133Z,34.20
2019-02-16T12:07:00.255Z,33.70
2019-02-16T12:09:36.322Z,34.70
2019-02-16T12:12:24.036Z,32.40
2019-02-16T12:15:02.881Z,32.60
2019-02-16T12:17:42.641Z,30.90
2019-02-16T12:20:15.530Z,30.40
2019-02-16T12:22:47.350Z,31.30
2019-02-16T12:25:16.850Z,33.60
2019-02-16T12:27:53.052Z,34.10
2019-02-16T12:30:45.564Z,33.70
2019-02-16T12:33:19.413Z,32.90
2019-02-16T12:36:06.474Z,31.30
2019-02-16T12:38:42.959Z,33.30
2019-02-16T12:41:21.663Z,30.00
2019-02-16T12:43:57.800Z,30.90
2019-02-16T12:46:33.690Z,29.70
2019-02-16T12:49:21.195Z,29.30
2019-02-16T12:52:07.106Z,30.00
2019-02-16T12:54:45.430Z,29.80
2019-02-16T12:57:18.156Z,31.10
2019-02-16T13:00:04.899Z,31.30
2019-02-16T13:02:34.835Z,31.50
2019-02-16T13:05:04.862Z,31.30
2019-02-16T13:07:40.870Z,30.00
2019-02-16T13:10:10.798Z,31.50
2019-02-16T13:12:41.360Z,33.70
2019-02-16T13:15:20.596Z,30.90
2019-02-16T13:17:59.494Z,32.20
2019-02-16T13:20:37.829Z,33.10
2019-02-16T13:23:07.715Z,34.20
2019-02-16T13:25:37.652Z,33.40
2019-02-16T13:28:10.099Z,34.40
2019-02-16T13:30:44.389Z,34.30
2019-02-16T13:33:16.937Z,35.10
2019-02-16T13:35:49.618Z,34.20
2019-02-16T13:38:23.314Z,34.10
2019-02-16T13:40:53.202Z,33.10
2019-02-16T13:43:23.088Z,33.60
2019-02-16T13:46:02.890Z,33.90
2019-02-16T13:48:32.787Z,33.80
2019-02-16T13:51:05.668Z,33.80
2019-02-16T13:53:48.622Z,34.20
2019-02-16T13:56:36.487Z,34.30
2019-02-16T13:59:16.032Z,34.20
2019-02-16T14:02:02.742Z,35.80
2019-02-16T14:04:35.728Z,36.10
2019-02-16T14:07:15.434Z,37.00
2019-02-16T14:09:45.335Z,37.20
2019-02-16T14:12:21.218Z,37.40
2019-02-16T14:14:59.850Z,37.60
2019-02-16T14:20:19.738Z,38.50
2019-02-16T14:22:47.992Z,38.50
2019-02-16T14:25:17.898Z,39.20
2019-02-16T14:27:47.459Z,39.00
2019-02-16T14:30:15.712Z,39.00
2019-02-16T14:32:43.950Z,38.90
2019-02-16T14:35:12.201Z,39.00
2019-02-16T14:37:49.440Z,39.00
2019-02-16T14:40:17.682Z,39.50
2019-02-16T14:42:45.938Z,39.30
2019-02-16T14:45:15.576Z,39.80
2019-02-16T14:47:44.185Z,39.10
2019-02-16T14:50:12.542Z,41.10
2019-02-16T14:52:42.121Z,40.70
2019-02-16T14:55:13.611Z,40.70
2019-02-16T14:57:41.878Z,40.00
2019-02-16T15:00:12.452Z,40.80
2019-02-16T15:02:40.695Z,41.10
2019-02-16T15:05:09.596Z,41.40
2019-02-16T15:07:37.912Z,42.30
2019-02-16T15:10:11.535Z,41.80
2019-02-16T15:12:39.798Z,42.70
2019-02-16T15:15:10.859Z,42.70
2019-02-16T15:17:39.391Z,42.90
2019-02-16T15:20:10.454Z,42.90
2019-02-16T15:22:38.683Z,42.50
2019-02-16T15:25:10.974Z,43.00
2019-02-16T15:27:39.346Z,42.80
2019-02-16T15:30:18.989Z,43.80
2019-02-16T15:32:47.206Z,44.00
2019-02-16T15:35:15.635Z,44.80
2019-02-16T15:37:44.549Z,43.40
2019-02-16T15:40:14.655Z,44.20
2019-02-16T15:42:42.894Z,43.80
2019-02-16T15:45:16.012Z,44.30
2019-02-16T15:47:44.297Z,43.60
2019-02-16T15:50:15.569Z,43.90
2019-02-16T15:52:44.153Z,43.60
2019-02-16T15:55:12.663Z,43.80
2019-02-16T15:57:40.949Z,44.50
2019-02-16T16:00:14.677Z,45.00
2019-02-16T16:02:42.919Z,45.30
2019-02-16T16:05:11.181Z,45.30
2019-02-16T16:07:41.593Z,45.60
2019-02-16T16:10:17.458Z,46.20
2019-02-16T16:13:03.760Z,46.50
2019-02-16T16:15:42.392Z,46.50
2019-02-16T16:18:08.310Z,47.10
2019-02-16T16:20:38.198Z,47.60
2019-02-16T16:23:08.171Z,47.40
2019-02-16T16:25:39.667Z,47.90
2019-02-16T16:28:09.862Z,47.60
2019-02-16T16:30:39.786Z,47.70
2019-02-16T16:33:09.682Z,47.70
2019-02-16T16:35:55.830Z,48.50
2019-02-16T16:38:37.952Z,48.50
2019-02-16T16:41:14.466Z,48.50
2019-02-16T16:43:59.308Z,48.60
2019-02-16T16:46:46.080Z,48.80
2019-02-16T16:49:20.008Z,48.80
2019-02-16T16:51:53.758Z,48.20
2019-02-16T16:54:26.596Z,48.10
2019-02-16T16:56:56.891Z,48.60
2019-02-16T16:59:35.633Z,48.70
2019-02-16T17:02:05.963Z,48.80
2019-02-16T17:04:43.886Z,48.50
2019-02-16T17:07:20.318Z,48.60
2019-02-16T17:09:50.214Z,49.00
2019-02-16T17:12:20.106Z,49.00
2019-02-16T17:14:50.120Z,48.90
2019-02-16T17:17:22.966Z,49.10
2019-02-16T17:19:53.156Z,49.50
2019-02-16T17:22:25.936Z,50.20
2019-02-16T17:24:55.934Z,50.20
2019-02-16T17:27:25.873Z,51.80
2019-02-16T17:29:59.593Z,51.60
2019-02-16T17:32:45.956Z,52.60
2019-02-16T17:35:32.317Z,53.40
2019-02-16T17:38:02.761Z,54.20
2019-02-16T17:40:32.650Z,54.30
2019-02-16T17:43:06.300Z,56.90
2019-02-16T17:45:39.039Z,58.70
2019-02-16T17:48:23.025Z,56.30
2019-02-16T17:51:07.878Z,57.00
2019-02-16T17:53:39.303Z,56.70
2019-02-16T17:56:14.910Z,57.10
2019-02-16T17:58:51.928Z,57.60
2019-02-16T18:01:21.814Z,57.90
2019-02-16T18:04:04.236Z,58.80
2019-02-16T18:06:43.078Z,58.50
2019-02-16T18:09:34.030Z,59.10
2019-02-16T18:12:17.040Z,59.20
2019-02-16T18:15:09.241Z,60.20
2019-02-16T18:17:39.141Z,59.70
2019-02-16T18:20:14.991Z,60.50
2019-02-16T18:22:53.722Z,60.70
2019-02-16T18:25:31.483Z,61.40
2019-02-16T18:28:04.273Z,62.80
2019-02-16T18:30:47.000Z,62.70
2019-02-16T18:33:20.026Z,64.80
2019-02-16T18:35:53.306Z,65.20
2019-02-16T18:38:27.000Z,64.90
2019-02-16T18:41:08.235Z,64.90
2019-02-16T18:43:50.128Z,65.10
2019-02-16T18:46:26.304Z,65.50
2019-02-16T18:48:56.489Z,65.40
2019-02-16T18:51:38.074Z,66.20
2019-02-16T18:54:23.846Z,67.00
2019-02-16T18:57:06.696Z,67.80
2019-02-16T18:59:37.825Z,69.00
2019-02-16T19:02:26.875Z,69.50
2019-02-16T19:04:58.239Z,70.30
2019-02-16T19:07:43.573Z,71.60
2019-02-16T19:10:16.789Z,70.80
2019-02-16T19:12:49.803Z,70.60
2019-02-16T19:15:25.350Z,71.80
2019-02-16T19:18:06.113Z,74.30
2019-02-16T19:20:55.599Z,73.70
2019-02-16T19:23:26.453Z,72.60
2019-02-16T19:26:02.443Z,72.50
2019-02-16T19:28:33.700Z,73.10
2019-02-16T19:31:13.547Z,73.40
2019-02-16T19:33:49.766Z,73.40
2019-02-16T19:36:22.435Z,74.20
2019-02-16T19:39:05.220Z,74.30
2019-02-16T19:41:51.589Z,74.90
2019-02-16T19:44:39.395Z,75.30
2019-02-16T19:47:25.381Z,75.60
2019-02-16T19:50:01.331Z,75.60
2019-02-16T19:52:47.450Z,76.10
2019-02-16T19:55:35.658Z,76.50
2019-02-16T19:58:17.795Z,77.90
2019-02-16T20:00:54.119Z,78.00
2019-02-16T20:03:28.414Z,76.80
2019-02-16T20:06:14.784Z,76.70
2019-02-16T20:09:01.541Z,77.30
2019-02-16T20:11:47.562Z,78.00
2019-02-16T20:14:24.475Z,79.00
2019-02-16T20:16:57.217Z,79.20
2019-02-16T20:19:41.475Z,78.70
2019-02-16T20:22:11.420Z,79.20
2019-02-16T20:24:44.809Z,80.70
2019-02-16T20:27:19.356Z,79.80
2019-02-16T20:29:55.567Z,80.00
2019-02-16T20:32:25.520Z,80.70
2019-02-16T20:35:14.657Z,81.20
2019-02-16T20:37:44.548Z,81.30
2019-02-16T20:40:20.469Z,81.50
2019-02-16T20:42:53.344Z,81.60
2019-02-16T20:45:29.861Z,81.60
2019-02-16T20:48:03.469Z,81.80
2019-02-16T20:50:49.288Z,82.30
2019-02-16T20:53:34.214Z,82.40
2019-02-16T20:56:08.191Z,82.50
2019-02-16T20:58:43.552Z,82.70
2019-02-16T21:01:23.313Z,81.90
2019-02-16T21:03:56.910Z,82.40
2019-02-16T21:06:27.767Z,81.70
2019-02-16T21:08:57.914Z,81.50
2019-02-16T21:11:27.827Z,81.80
2019-02-16T21:14:00.785Z,81.80
2019-02-16T21:16:46.986Z,81.70
2019-02-16T21:19:17.274Z,81.90
2019-02-16T21:21:53.056Z,82.30
2019-02-16T21:24:38.098Z,83.50
2019-02-16T21:27:08.067Z,83.10
2019-02-16T21:29:37.951Z,84.10
2019-02-16T21:32:14.553Z,84.40
2019-02-16T21:34:46.418Z,83.70
2019-02-16T21:37:28.718Z,83.10
2019-02-16T21:40:09.833Z,82.30
2019-02-16T21:42:49.059Z,83.50
2019-02-16T21:45:21.795Z,82.70
2019-02-16T21:47:55.098Z,81.70
2019-02-16T21:50:43.815Z,81.40
2019-02-16T21:53:21.518Z,81.70
2019-02-16T21:55:49.387Z,81.50
2019-02-16T21:58:26.810Z,81.70
2019-02-16T22:00:59.358Z,82.20
2019-02-16T22:03:38.309Z,82.50
2019-02-16T22:06:09.821Z,82.50
2019-02-16T22:08:54.884Z,81.40
2019-02-16T22:11:24.826Z,82.00
2019-02-16T22:13:53.107Z,81.70
2019-02-16T22:16:22.101Z,82.10
2019-02-16T22:18:50.372Z,81.30
2019-02-16T22:21:19.370Z,81.10
2019-02-16T22:23:48.110Z,79.60
2019-02-16T22:26:17.787Z,78.70
2019-02-16T22:28:46.027Z,78.00
2019-02-16T22:31:14.372Z,77.80
2019-02-16T22:33:42.618Z,78.10
2019-02-16T22:36:10.953Z,78.50
2019-02-16T22:38:39.697Z,78.70
2019-02-16T22:41:07.965Z,79.20
2019-02-16T22:43:36.268Z,79.40
2019-02-16T22:46:06.071Z,79.70
2019-02-16T22:48:34.300Z,79.10
2019-02-16T22:51:02.581Z,79.50
2019-02-16T22:53:31.602Z,79.30
2019-02-16T22:55:59.838Z,80.10
2019-02-16T22:58:29.179Z,81.10
2019-02-16T23:00:58.227Z,80.50
2019-02-16T23:03:26.486Z,78.50
2019-02-16T23:05:54.785Z,77.80
2019-02-16T23:08:24.441Z,77.70
2019-02-16T23:10:52.769Z,77.70
2019-02-16T23:13:20.997Z,77.40
2019-02-16T23:15:49.584Z,77.00
2019-02-16T23:18:18.009Z,76.90
2019-02-16T23:20:47.773Z,77.00
2019-02-16T23:23:16.178Z,76.60
2019-02-16T23:25:45.604Z,76.10
2019-02-16T23:28:13.868Z,76.00
2019-02-16T23:30:42.348Z,76.40
2019-02-16T23:33:12.013Z,76.60
2019-02-16T23:35:40.289Z,76.50
2019-02-16T23:38:08.602Z,76.70
2019-02-16T23:40:37.873Z,76.90
2019-02-16T23:43:06.113Z,77.00
2019-02-16T23:45:34.417Z,77.20
2019-02-16T23:48:02.834Z,77.30
2019-02-16T23:50:31.153Z,76.70
2019-02-16T23:52:59.388Z,76.40
2019-02-16T23:55:29.591Z,76.00
2019-02-16T23:57:59.492Z,75.90
